Armstrong, Alabama
Current Conditions -  °F | °C
As of 4:15 AM on Thursday 29 Jan 2015 (Local Time) from KAUO Reporting Station
Clear Clear  
Wind Chill: 37°   Ceiling: Unl
Heat Index: 37°   Visibility: 10mi
Dew Point: 27°   Wind: 3mph
Humidity: 65%   Direction: 130°SE
Pressure: 30.29"   Gusts: NA
Location:  32.2227°N, 85.6394°W
Report Text: KAUO 291015Z AUTO 13003KT 10SM CLR 03/M03 A3029 RMK AO1
Loading
Personal Weather Stations






























Interactive Weather Map New forecast layout! Learn more

10-Day Weather Forecast

Advertisements
Track Severe Weather on mobile